createdAt,value
2023-09-30T00:03:53.272Z,100142.44
2023-09-30T00:08:57.459Z,100137.88
2023-09-30T00:14:01.714Z,100138.66
2023-09-30T00:19:04.787Z,100133.97
2023-09-30T00:24:08.114Z,100157.59
2023-09-30T00:29:12.277Z,100145.50
2023-09-30T00:34:15.073Z,100145.50
2023-09-30T00:39:17.912Z,100119.97
2023-09-30T00:44:22.658Z,100105.88
2023-09-30T00:49:25.914Z,100124.06
2023-09-30T00:54:30.168Z,100115.91
2023-09-30T00:59:34.703Z,100109.72
2023-09-30T01:04:37.775Z,100091.22
2023-09-30T01:09:40.739Z,100091.00
2023-09-30T01:14:45.568Z,100072.56
2023-09-30T01:19:48.367Z,100061.19
2023-09-30T01:24:52.552Z,100057.34
2023-09-30T01:29:55.334Z,100052.09
2023-09-30T01:34:58.142Z,100043.06
2023-09-30T01:40:04.168Z,100047.34
2023-09-30T01:45:08.112Z,100037.56
2023-09-30T01:50:11.487Z,100028.72
2023-09-30T01:55:15.838Z,100008.41
2023-09-30T02:00:19.158Z,99991.59
2023-09-30T02:05:21.974Z,100006.44
2023-09-30T02:10:26.120Z,99999.84
2023-09-30T02:15:29.070Z,99986.75
2023-09-30T02:20:32.048Z,99974.34
2023-09-30T02:25:36.197Z,99957.59
2023-09-30T02:30:39.037Z,99975.03
2023-09-30T02:35:46.411Z,99979.00
2023-09-30T02:40:51.072Z,99967.59
2023-09-30T02:45:53.908Z,99952.00
2023-09-30T02:50:56.835Z,99929.09
2023-09-30T02:56:01.556Z,99872.44
2023-09-30T03:01:04.572Z,99818.91
2023-09-30T03:06:07.437Z,99809.22
2023-09-30T03:11:11.717Z,99835.53
2023-09-30T03:16:14.671Z,99834.47
2023-09-30T03:21:17.611Z,99820.25
2023-09-30T03:26:21.776Z,99806.22
2023-09-30T03:31:24.635Z,99745.28
2023-09-30T03:36:27.449Z,99705.53
2023-09-30T03:41:32.484Z,99695.63
2023-09-30T03:46:35.347Z,99670.91
2023-09-30T03:51:38.383Z,99654.22
2023-09-30T03:56:42.548Z,99645.25
2023-09-30T04:01:45.421Z,99632.03
2023-09-30T04:06:48.615Z,99601.03
2023-09-30T04:11:52.752Z,99596.56
2023-09-30T04:16:56.235Z,99564.06
2023-09-30T04:21:59.077Z,99550.78
2023-09-30T04:27:07.071Z,99525.22
2023-09-30T04:32:10.845Z,99504.94
2023-09-30T04:37:14.661Z,99501.41
2023-09-30T04:42:18.816Z,99495.97
2023-09-30T04:47:21.704Z,99479.09
2023-09-30T04:52:28.036Z,99472.00
2023-09-30T04:57:32.782Z,99471.88
2023-09-30T05:02:35.766Z,99384.63
2023-09-30T05:07:38.760Z,99343.34
2023-09-30T05:12:47.435Z,99310.78
2023-09-30T05:17:51.109Z,99292.28
2023-09-30T05:22:53.884Z,99270.94
2023-09-30T05:27:58.025Z,99259.50
2023-09-30T05:33:00.923Z,99238.44
2023-09-30T05:38:05.061Z,99241.78
2023-09-30T05:43:09.173Z,99221.69
2023-09-30T05:48:12.057Z,99197.75
2023-09-30T05:53:15.131Z,99187.34
2023-09-30T05:58:19.294Z,99052.63
2023-09-30T06:03:22.798Z,99038.50
2023-09-30T06:08:25.648Z,98985.75
2023-09-30T06:13:32.462Z,98949.66
2023-09-30T06:18:35.685Z,98925.06
2023-09-30T06:23:38.451Z,98905.91
2023-09-30T06:28:42.786Z,98874.31
2023-09-30T06:33:45.679Z,98823.34
2023-09-30T06:38:51.472Z,98772.34
2023-09-30T06:43:55.747Z,98763.59
2023-09-30T06:48:58.818Z,98726.72
2023-09-30T06:54:01.745Z,98680.19
2023-09-30T06:59:07.500Z,98685.53
2023-09-30T07:04:12.008Z,98663.56
2023-09-30T07:09:14.898Z,98594.94
2023-09-30T07:14:19.888Z,98576.44
2023-09-30T07:19:22.639Z,98569.44
2023-09-30T07:24:26.587Z,98546.53
2023-09-30T07:29:30.851Z,98520.13
2023-09-30T07:34:33.921Z,98521.03
2023-09-30T07:39:37.430Z,98499.91
2023-09-30T07:44:41.564Z,98499.88
2023-09-30T07:49:44.359Z,98518.41
2023-09-30T07:54:47.234Z,98534.28
2023-09-30T07:59:51.387Z,98576.66
2023-09-30T08:04:54.436Z,98636.63
2023-09-30T08:09:57.286Z,98720.50
2023-09-30T08:15:01.642Z,98752.31
2023-09-30T08:20:05.576Z,98826.50
2023-09-30T08:25:09.612Z,98864.59
2023-09-30T08:30:13.975Z,98935.31
2023-09-30T08:35:16.826Z,99011.34
2023-09-30T08:40:22.516Z,99150.16
2023-09-30T08:45:26.699Z,99284.38
2023-09-30T08:50:29.987Z,99357.72
2023-09-30T08:55:35.409Z,99447.91
2023-09-30T09:00:40.652Z,99543.16
2023-09-30T09:05:43.420Z,99596.59
2023-09-30T09:10:56.941Z,99634.16
2023-09-30T09:16:10.867Z,99737.84
2023-09-30T09:21:14.380Z,99806.38
2023-09-30T09:26:26.186Z,99908.13
2023-09-30T09:31:31.883Z,100085.59
2023-09-30T09:36:41.427Z,100160.78
2023-09-30T09:41:53.856Z,100249.94
2023-09-30T09:47:00.187Z,100353.53
2023-09-30T09:52:02.909Z,100438.84
2023-09-30T09:57:07.117Z,100524.38
2023-09-30T10:02:15.584Z,100773.81
2023-09-30T10:07:22.677Z,100868.66
2023-09-30T10:12:25.849Z,100909.91
2023-09-30T10:18:00.213Z,101003.50
2023-09-30T10:23:26.190Z,101062.56
2023-09-30T10:28:40.098Z,101143.66
2023-09-30T10:34:20.678Z,101189.84
2023-09-30T10:39:59.327Z,101170.03
2023-09-30T10:45:02.230Z,101214.84
2023-09-30T10:50:06.316Z,101247.88
2023-09-30T10:55:11.226Z,101244.78
2023-09-30T11:00:17.418Z,101251.06
2023-09-30T11:05:32.062Z,101278.31
2023-09-30T11:10:40.327Z,101268.03
2023-09-30T11:15:43.141Z,101283.31
2023-09-30T11:20:46.772Z,101283.19
2023-09-30T11:25:51.475Z,101284.81
2023-09-30T11:30:57.871Z,101315.25
2023-09-30T11:36:03.182Z,101353.34
2023-09-30T11:41:08.037Z,101381.44
2023-09-30T11:46:12.136Z,101411.56
2023-09-30T11:51:15.024Z,101436.22
2023-09-30T11:56:19.778Z,101433.72
2023-09-30T12:01:23.128Z,101467.94
2023-09-30T12:06:26.247Z,101489.53
2023-09-30T12:11:30.520Z,101484.25
2023-09-30T12:16:33.370Z,101521.31
2023-09-30T12:21:37.404Z,101522.44
2023-09-30T12:26:42.421Z,101535.84
2023-09-30T12:31:53.107Z,101555.59
2023-09-30T12:36:58.125Z,101572.34
2023-09-30T12:42:10.048Z,101577.41
2023-09-30T12:47:13.152Z,101579.56
2023-09-30T12:52:16.014Z,101596.59
2023-09-30T12:57:20.334Z,101590.97
2023-09-30T13:02:23.131Z,101582.06
2023-09-30T13:07:26.319Z,101580.56
2023-09-30T13:12:30.469Z,101592.84
2023-09-30T13:17:33.279Z,101580.75
2023-09-30T13:22:37.539Z,101596.56
2023-09-30T13:27:41.890Z,101585.75
2023-09-30T13:32:45.385Z,101586.34
2023-09-30T13:37:48.562Z,101587.94
2023-09-30T13:42:53.291Z,101587.03
2023-09-30T13:47:58.154Z,101596.28
2023-09-30T13:53:02.265Z,101597.81
2023-09-30T13:58:06.617Z,101594.13
2023-09-30T14:03:09.494Z,101596.53
2023-09-30T14:08:12.324Z,101591.53
2023-09-30T14:13:16.769Z,101579.97
2023-09-30T14:18:19.571Z,101580.81
2023-09-30T14:23:22.379Z,101573.00
2023-09-30T14:28:26.526Z,101563.06
2023-09-30T14:33:29.432Z,101557.47
2023-09-30T14:38:32.802Z,101561.34
2023-09-30T14:43:37.187Z,101563.53
2023-09-30T14:48:41.337Z,101562.00
2023-09-30T14:53:44.161Z,101559.88
2023-09-30T14:58:48.446Z,101557.31
2023-09-30T15:03:51.392Z,101552.75
2023-09-30T15:08:54.289Z,101559.56
2023-09-30T15:13:58.429Z,101551.69
2023-09-30T15:19:01.670Z,101548.84
2023-09-30T15:24:05.343Z,101556.78
2023-09-30T15:29:09.559Z,101565.34
2023-09-30T15:34:13.985Z,101565.28
2023-09-30T15:39:17.050Z,101556.41
2023-09-30T15:44:21.266Z,101553.34
2023-09-30T15:49:24.090Z,101562.19
2023-09-30T15:54:26.882Z,101556.75
2023-09-30T15:59:31.122Z,101555.72
2023-09-30T16:04:34.072Z,101547.19
2023-09-30T16:09:36.952Z,101556.78
2023-09-30T16:14:41.134Z,101548.22
2023-09-30T16:19:43.931Z,101559.31
2023-09-30T16:24:46.718Z,101550.00
2023-09-30T16:29:51.147Z,101566.41
2023-09-30T16:34:53.875Z,101566.16
2023-09-30T16:39:56.697Z,101564.88
2023-09-30T16:45:01.114Z,101557.78
2023-09-30T16:50:05.099Z,101542.19
2023-09-30T16:55:09.524Z,101539.28
2023-09-30T17:00:16.147Z,101536.63
2023-09-30T17:05:19.752Z,101530.41
2023-09-30T17:10:22.583Z,101536.19
2023-09-30T17:15:26.731Z,101533.66
2023-09-30T17:20:30.306Z,101527.47
2023-09-30T17:25:33.228Z,101533.78
2023-09-30T17:30:42.328Z,101527.41
2023-09-30T17:35:46.256Z,101521.47
2023-09-30T17:40:49.387Z,101527.50
2023-09-30T17:45:53.636Z,101509.50
2023-09-30T17:50:56.485Z,101504.81
2023-09-30T17:55:59.262Z,101491.28
2023-09-30T18:01:03.515Z,101481.59
2023-09-30T18:06:07.908Z,101477.03
2023-09-30T18:11:10.878Z,101476.59
2023-09-30T18:16:15.504Z,101458.84
2023-09-30T18:21:18.463Z,101449.19
2023-09-30T18:26:21.976Z,101447.22
2023-09-30T18:31:28.086Z,101434.53
2023-09-30T18:36:31.432Z,101407.13
2023-09-30T18:41:34.686Z,101398.94
2023-09-30T18:46:39.276Z,101384.94
2023-09-30T18:51:42.237Z,101396.81
2023-09-30T18:56:45.229Z,101393.94
2023-09-30T19:01:49.901Z,101377.69
2023-09-30T19:06:52.810Z,101380.75
2023-09-30T19:11:55.611Z,101370.53
2023-09-30T19:17:00.166Z,101352.34
2023-09-30T19:22:03.154Z,101343.53
2023-09-30T19:27:05.934Z,101327.75
2023-09-30T19:32:10.827Z,101338.84
2023-09-30T19:37:14.593Z,101334.09
2023-09-30T19:42:17.952Z,101326.97
2023-09-30T19:47:22.634Z,101312.81
2023-09-30T19:52:29.840Z,101301.19
2023-09-30T19:57:33.264Z,101296.00
2023-09-30T20:02:37.882Z,101278.81
2023-09-30T20:07:41.379Z,101272.47
2023-09-30T20:12:44.740Z,101253.97
2023-09-30T20:17:50.767Z,101227.50
2023-09-30T20:22:54.142Z,101201.53
2023-09-30T20:27:59.768Z,101183.28
2023-09-30T20:33:04.332Z,101180.84
2023-09-30T20:38:07.133Z,101184.84
2023-09-30T20:43:10.123Z,101188.84
2023-09-30T20:48:14.334Z,101176.66
2023-09-30T20:53:17.091Z,101162.91
2023-09-30T20:58:19.814Z,101158.63
2023-09-30T21:03:24.042Z,101150.50
2023-09-30T21:08:27.068Z,101132.25
2023-09-30T21:13:29.800Z,101111.59
2023-09-30T21:18:34.461Z,101122.78
2023-09-30T21:23:37.212Z,101107.25
2023-09-30T21:28:43.676Z,101095.63
2023-09-30T21:33:47.995Z,101107.50
2023-09-30T21:38:51.059Z,101091.66
2023-09-30T21:43:53.837Z,101080.03
2023-09-30T21:48:58.199Z,101086.25
2023-09-30T21:54:01.838Z,101099.06
2023-09-30T21:59:04.637Z,101105.44
2023-09-30T22:04:10.327Z,101114.19
2023-09-30T22:09:13.392Z,101117.69
2023-09-30T22:14:16.466Z,101095.81
2023-09-30T22:19:22.863Z,101080.88
2023-09-30T22:24:25.668Z,101071.84
2023-09-30T22:29:28.469Z,101074.44
2023-09-30T22:34:32.602Z,101062.59
2023-09-30T22:39:35.595Z,101056.28
2023-09-30T22:44:38.361Z,101049.09
2023-09-30T22:49:42.542Z,101034.03
2023-09-30T22:54:45.406Z,101024.34
2023-09-30T22:59:48.183Z,101021.16
2023-09-30T23:04:52.305Z,100999.06
2023-09-30T23:09:55.094Z,100988.06
2023-09-30T23:14:57.913Z,100972.34
2023-09-30T23:20:05.266Z,100954.00
2023-09-30T23:25:12.513Z,100924.94
2023-09-30T23:30:16.979Z,100921.63
2023-09-30T23:35:22.479Z,100910.06
2023-09-30T23:40:25.702Z,100895.66
2023-09-30T23:45:31.737Z,100874.66
2023-09-30T23:50:36.210Z,100848.13
2023-09-30T23:55:39.472Z,100831.66
